Lajeado Grande, Brazil
Current Conditions -  °F | °C
As of 9:00 PM on Thursday 27 Nov 2014 (Local Time) from SBCA Reporting Station
Few Clouds Few Clouds  
Wind Chill: 77°   Ceiling: Unl
Heat Index: 79°   Visibility: 6mi
Dew Point: 70°   Wind: 0mph
Humidity: 78%   Direction: NA
Pressure: 29.91"   Gusts: NA
Location:  25.83°S, 52.92°W
Report Text: SBCA 272300Z 00000KT 9999 FEW025 25/21 Q1013
Loading
Personal Weather Stations






























Interactive Weather Map New forecast layout! Learn more

10-Day Weather Forecast

Advertisements
Track Severe Weather on mobile